sensor_id;sensor_type;location;lat;lon;timestamp;temperature;humidity
22098;DHT22;11215;51.938;8.464;2023-07-29T14:34:58;27.20;51.70
22098;DHT22;11215;51.938;8.464;2023-07-29T14:37:24;27.20;51.70
22098;DHT22;11215;51.938;8.464;2023-07-29T14:39:49;27.20;51.50
22098;DHT22;11215;51.938;8.464;2023-07-29T14:42:15;27.20;50.90
22098;DHT22;11215;51.938;8.464;2023-07-29T14:44:41;27.20;51.40
22098;DHT22;11215;51.938;8.464;2023-07-29T14:47:08;27.10;51.40
22098;DHT22;11215;51.938;8.464;2023-07-29T14:49:33;27.10;51.10
22098;DHT22;11215;51.938;8.464;2023-07-29T14:51:59;27.00;51.10
22098;DHT22;11215;51.938;8.464;2023-07-29T14:54:25;27.00;51.10
22098;DHT22;11215;51.938;8.464;2023-07-29T14:56:51;27.00;51.20
22098;DHT22;11215;51.938;8.464;2023-07-29T14:59:16;26.90;51.60
22098;DHT22;11215;51.938;8.464;2023-07-29T15:01:42;26.80;51.60
22098;DHT22;11215;51.938;8.464;2023-07-29T15:04:07;26.80;51.80
22098;DHT22;11215;51.938;8.464;2023-07-29T15:06:33;26.80;51.30
22098;DHT22;11215;51.938;8.464;2023-07-29T15:08:59;26.80;51.30
22098;DHT22;11215;51.938;8.464;2023-07-29T15:11:26;26.70;51.40
22098;DHT22;11215;51.938;8.464;2023-07-29T15:13:51;26.60;51.40
22098;DHT22;11215;51.938;8.464;2023-07-29T15:16:17;26.50;51.40
22098;DHT22;11215;51.938;8.464;2023-07-29T18:01:57;25.90;59.90
22098;DHT22;11215;51.938;8.464;2023-07-29T18:04:23;25.90;59.60
22098;DHT22;11215;51.938;8.464;2023-07-29T18:06:51;26.00;59.70
22098;DHT22;11215;51.938;8.464;2023-07-29T18:09:17;26.00;59.70
22098;DHT22;11215;51.938;8.464;2023-07-29T18:11:42;26.00;59.40
22098;DHT22;11215;51.938;8.464;2023-07-29T18:14:08;26.10;59.30
22098;DHT22;11215;51.938;8.464;2023-07-29T18:16:34;26.10;59.30
22098;DHT22;11215;51.938;8.464;2023-07-29T18:19:02;26.10;59.10
22098;DHT22;11215;51.938;8.464;2023-07-29T18:21:27;26.10;59.20
22098;DHT22;11215;51.938;8.464;2023-07-29T18:23:53;26.00;59.20
22098;DHT22;11215;51.938;8.464;2023-07-29T18:26:19;26.00;59.30
22098;DHT22;11215;51.938;8.464;2023-07-29T18:28:45;26.00;59.30
22098;DHT22;11215;51.938;8.464;2023-07-29T18:31:10;26.00;59.30
22098;DHT22;11215;51.938;8.464;2023-07-29T18:33:36;26.00;59.20
22098;DHT22;11215;51.938;8.464;2023-07-29T18:36:03;26.00;59.10
22098;DHT22;11215;51.938;8.464;2023-07-29T18:38:29;26.00;59.10
22098;DHT22;11215;51.938;8.464;2023-07-29T18:40:55;26.00;59.10
22098;DHT22;11215;51.938;8.464;2023-07-29T18:43:20;26.00;59.10
22098;DHT22;11215;51.938;8.464;2023-07-29T18:45:46;26.10;58.80
22098;DHT22;11215;51.938;8.464;2023-07-29T18:48:12;26.00;58.70
22098;DHT22;11215;51.938;8.464;2023-07-29T18:50:38;26.00;58.80
22098;DHT22;11215;51.938;8.464;2023-07-29T18:53:04;25.90;58.80
22098;DHT22;11215;51.938;8.464;2023-07-29T18:55:29;25.80;58.70
22098;DHT22;11215;51.938;8.464;2023-07-29T18:57:55;25.80;58.90
22098;DHT22;11215;51.938;8.464;2023-07-29T19:00:21;25.70;59.20
22098;DHT22;11215;51.938;8.464;2023-07-29T19:02:47;25.60;59.30
22098;DHT22;11215;51.938;8.464;2023-07-29T19:05:14;25.50;59.40
22098;DHT22;11215;51.938;8.464;2023-07-29T19:07:40;25.40;59.60
22098;DHT22;11215;51.938;8.464;2023-07-29T19:10:06;25.40;59.90
22098;DHT22;11215;51.938;8.464;2023-07-29T19:12:32;25.30;60.00
22098;DHT22;11215;51.938;8.464;2023-07-29T19:14:58;25.20;60.00
22098;DHT22;11215;51.938;8.464;2023-07-29T19:17:23;25.10;60.30
22098;DHT22;11215;51.938;8.464;2023-07-29T19:19:49;25.00;60.30
22098;DHT22;11215;51.938;8.464;2023-07-29T19:22:15;25.00;60.40
22098;DHT22;11215;51.938;8.464;2023-07-29T19:24:41;24.90;60.70
22098;DHT22;11215;51.938;8.464;2023-07-29T19:27:06;24.90;60.80
22098;DHT22;11215;51.938;8.464;2023-07-29T19:29:32;24.80;60.90
22098;DHT22;11215;51.938;8.464;2023-07-29T19:31:58;24.80;60.90
22098;DHT22;11215;51.938;8.464;2023-07-29T19:34:24;24.70;60.90
22098;DHT22;11215;51.938;8.464;2023-07-29T19:36:50;24.80;61.10
22098;DHT22;11215;51.938;8.464;2023-07-29T19:39:16;24.70;61.10
22098;DHT22;11215;51.938;8.464;2023-07-29T19:41:42;24.70;61.30
22098;DHT22;11215;51.938;8.464;2023-07-29T19:44:07;24.70;61.20
22098;DHT22;11215;51.938;8.464;2023-07-29T19:46:33;24.70;61.30
22098;DHT22;11215;51.938;8.464;2023-07-29T19:48:59;24.60;61.40
22098;DHT22;11215;51.938;8.464;2023-07-29T19:51:25;24.60;61.40
22098;DHT22;11215;51.938;8.464;2023-07-29T19:53:51;24.60;61.40
22098;DHT22;11215;51.938;8.464;2023-07-29T19:56:17;24.60;61.50
22098;DHT22;11215;51.938;8.464;2023-07-29T19:58:43;24.60;61.50
22098;DHT22;11215;51.938;8.464;2023-07-29T20:01:09;24.50;61.70
22098;DHT22;11215;51.938;8.464;2023-07-29T20:03:36;24.50;61.60
22098;DHT22;11215;51.938;8.464;2023-07-29T20:06:02;24.50;61.80
22098;DHT22;11215;51.938;8.464;2023-07-29T20:08:28;24.40;61.60
22098;DHT22;11215;51.938;8.464;2023-07-29T20:10:53;24.40;61.60
22098;DHT22;11215;51.938;8.464;2023-07-29T20:13:19;24.40;61.70
22098;DHT22;11215;51.938;8.464;2023-07-29T20:15:45;24.40;61.80
22098;DHT22;11215;51.938;8.464;2023-07-29T20:18:13;24.30;61.90
22098;DHT22;11215;51.938;8.464;2023-07-29T20:20:39;24.30;62.00
22098;DHT22;11215;51.938;8.464;2023-07-29T20:23:04;24.30;61.90
22098;DHT22;11215;51.938;8.464;2023-07-29T20:25:32;24.20;61.80
22098;DHT22;11215;51.938;8.464;2023-07-29T20:27:57;24.20;62.00
22098;DHT22;11215;51.938;8.464;2023-07-29T20:30:23;24.20;62.20
22098;DHT22;11215;51.938;8.464;2023-07-29T20:32:49;24.20;62.20
22098;DHT22;11215;51.938;8.464;2023-07-29T20:35:14;24.20;62.30
22098;DHT22;11215;51.938;8.464;2023-07-29T20:37:40;24.10;62.10
22098;DHT22;11215;51.938;8.464;2023-07-29T20:40:06;24.10;62.30
22098;DHT22;11215;51.938;8.464;2023-07-29T20:42:32;24.10;62.60
22098;DHT22;11215;51.938;8.464;2023-07-29T20:45:01;24.00;62.10
22098;DHT22;11215;51.938;8.464;2023-07-29T20:47:27;24.00;62.70
22098;DHT22;11215;51.938;8.464;2023-07-29T20:49:53;24.00;62.30
22098;DHT22;11215;51.938;8.464;2023-07-29T20:52:19;23.90;62.40
22098;DHT22;11215;51.938;8.464;2023-07-29T20:54:44;23.90;62.60
22098;DHT22;11215;51.938;8.464;2023-07-29T20:57:10;23.80;62.80
22098;DHT22;11215;51.938;8.464;2023-07-29T20:59:36;23.80;62.70
22098;DHT22;11215;51.938;8.464;2023-07-29T21:02:04;23.80;62.90
22098;DHT22;11215;51.938;8.464;2023-07-29T21:04:31;23.80;63.20
22098;DHT22;11215;51.938;8.464;2023-07-29T21:06:57;23.70;63.30
22098;DHT22;11215;51.938;8.464;2023-07-29T21:09:23;23.70;63.50
22098;DHT22;11215;51.938;8.464;2023-07-29T21:11:49;23.70;63.30
22098;DHT22;11215;51.938;8.464;2023-07-29T21:14:16;23.60;63.30
22098;DHT22;11215;51.938;8.464;2023-07-29T21:16:42;23.60;63.40
22098;DHT22;11215;51.938;8.464;2023-07-29T21:19:08;23.60;63.30
22098;DHT22;11215;51.938;8.464;2023-07-29T21:21:33;23.60;63.40
22098;DHT22;11215;51.938;8.464;2023-07-29T21:23:59;23.60;63.40
22098;DHT22;11215;51.938;8.464;2023-07-29T21:26:25;23.50;63.40
22098;DHT22;11215;51.938;8.464;2023-07-29T21:28:50;23.50;63.40
22098;DHT22;11215;51.938;8.464;2023-07-29T21:31:16;23.50;63.30
22098;DHT22;11215;51.938;8.464;2023-07-29T21:33:42;23.40;63.40
22098;DHT22;11215;51.938;8.464;2023-07-29T21:36:07;23.40;63.40
22098;DHT22;11215;51.938;8.464;2023-07-29T21:38:33;23.40;63.70
22098;DHT22;11215;51.938;8.464;2023-07-29T21:40:59;23.30;63.10
22098;DHT22;11215;51.938;8.464;2023-07-29T21:43:24;23.30;63.50
22098;DHT22;11215;51.938;8.464;2023-07-29T21:45:50;23.30;63.70
22098;DHT22;11215;51.938;8.464;2023-07-29T21:48:16;23.20;63.70
22098;DHT22;11215;51.938;8.464;2023-07-29T21:50:42;23.20;63.80
22098;DHT22;11215;51.938;8.464;2023-07-29T21:53:07;23.20;63.90
22098;DHT22;11215;51.938;8.464;2023-07-29T21:55:33;23.20;64.10
22098;DHT22;11215;51.938;8.464;2023-07-29T21:57:59;23.10;64.00
22098;DHT22;11215;51.938;8.464;2023-07-29T22:00:24;23.10;64.10
22098;DHT22;11215;51.938;8.464;2023-07-29T22:02:50;23.10;64.30
22098;DHT22;11215;51.938;8.464;2023-07-29T22:05:18;23.10;64.20
22098;DHT22;11215;51.938;8.464;2023-07-29T22:07:43;23.10;64.30
22098;DHT22;11215;51.938;8.464;2023-07-29T22:10:09;23.00;64.40
22098;DHT22;11215;51.938;8.464;2023-07-29T22:12:35;23.00;64.40
22098;DHT22;11215;51.938;8.464;2023-07-29T22:15:01;23.00;64.60
22098;DHT22;11215;51.938;8.464;2023-07-29T22:17:28;23.00;64.60
22098;DHT22;11215;51.938;8.464;2023-07-29T22:19:53;22.90;64.50
22098;DHT22;11215;51.938;8.464;2023-07-29T22:22:19;22.90;64.60
22098;DHT22;11215;51.938;8.464;2023-07-29T22:24:45;22.90;64.60
22098;DHT22;11215;51.938;8.464;2023-07-29T22:27:10;22.90;64.70
22098;DHT22;11215;51.938;8.464;2023-07-29T22:29:36;22.80;64.90
22098;DHT22;11215;51.938;8.464;2023-07-29T22:32:06;22.80;64.90
22098;DHT22;11215;51.938;8.464;2023-07-29T22:34:32;22.80;65.00
22098;DHT22;11215;51.938;8.464;2023-07-29T22:36:58;22.80;65.00
22098;DHT22;11215;51.938;8.464;2023-07-29T22:39:24;22.80;65.10
22098;DHT22;11215;51.938;8.464;2023-07-29T22:41:49;22.80;65.20
22098;DHT22;11215;51.938;8.464;2023-07-29T22:44:15;22.80;65.20
22098;DHT22;11215;51.938;8.464;2023-07-29T22:46:41;22.70;65.20
22098;DHT22;11215;51.938;8.464;2023-07-29T22:49:06;22.70;65.20
22098;DHT22;11215;51.938;8.464;2023-07-29T22:51:32;22.70;65.10
22098;DHT22;11215;51.938;8.464;2023-07-29T22:53:58;22.70;65.20
22098;DHT22;11215;51.938;8.464;2023-07-29T22:56:24;22.70;65.10
22098;DHT22;11215;51.938;8.464;2023-07-29T22:58:49;22.70;65.20
22098;DHT22;11215;51.938;8.464;2023-07-29T23:01:15;22.70;65.20
22098;DHT22;11215;51.938;8.464;2023-07-29T23:03:41;22.70;65.00
22098;DHT22;11215;51.938;8.464;2023-07-29T23:06:06;22.70;64.80
22098;DHT22;11215;51.938;8.464;2023-07-29T23:08:32;22.60;64.90
22098;DHT22;11215;51.938;8.464;2023-07-29T23:11:02;22.60;65.10
22098;DHT22;11215;51.938;8.464;2023-07-29T23:13:28;22.60;65.50
22098;DHT22;11215;51.938;8.464;2023-07-29T23:15:53;22.60;65.40
22098;DHT22;11215;51.938;8.464;2023-07-29T23:18:19;22.60;65.30
22098;DHT22;11215;51.938;8.464;2023-07-29T23:20:45;22.60;65.50
22098;DHT22;11215;51.938;8.464;2023-07-29T23:23:11;22.60;65.50
22098;DHT22;11215;51.938;8.464;2023-07-29T23:25:36;22.60;65.50
22098;DHT22;11215;51.938;8.464;2023-07-29T23:28:02;22.60;65.40
22098;DHT22;11215;51.938;8.464;2023-07-29T23:30:28;22.60;65.40
22098;DHT22;11215;51.938;8.464;2023-07-29T23:32:53;22.50;65.10
22098;DHT22;11215;51.938;8.464;2023-07-29T23:35:19;22.50;64.70
22098;DHT22;11215;51.938;8.464;2023-07-29T23:37:45;22.40;65.00
22098;DHT22;11215;51.938;8.464;2023-07-29T23:40:11;22.50;65.20
22098;DHT22;11215;51.938;8.464;2023-07-29T23:42:36;22.40;65.10
22098;DHT22;11215;51.938;8.464;2023-07-29T23:45:06;22.30;65.20
22098;DHT22;11215;51.938;8.464;2023-07-29T23:47:31;22.30;65.50
22098;DHT22;11215;51.938;8.464;2023-07-29T23:49:57;22.30;65.50
22098;DHT22;11215;51.938;8.464;2023-07-29T23:52:23;22.20;65.50
22098;DHT22;11215;51.938;8.464;2023-07-29T23:54:48;22.10;65.60
22098;DHT22;11215;51.938;8.464;2023-07-29T23:57:14;22.10;65.80
22098;DHT22;11215;51.938;8.464;2023-07-29T23:59:40;22.10;66.00
